sensor_id;sensor_type;location;lat;lon;timestamp;temperature;humidity
53146;DHT22;39042;53.150;5.898;2023-07-16T00:02:16;16.40;99.90
53146;DHT22;39042;53.150;5.898;2023-07-16T00:04:42;16.50;99.90
53146;DHT22;39042;53.150;5.898;2023-07-16T00:07:07;16.50;99.90
53146;DHT22;39042;53.150;5.898;2023-07-16T00:09:34;16.50;99.90
53146;DHT22;39042;53.150;5.898;2023-07-16T00:12:00;16.60;99.90
53146;DHT22;39042;53.150;5.898;2023-07-16T00:14:26;16.60;99.90
53146;DHT22;39042;53.150;5.898;2023-07-16T00:16:51;16.60;99.90
53146;DHT22;39042;53.150;5.898;2023-07-16T00:19:17;16.60;99.90
53146;DHT22;39042;53.150;5.898;2023-07-16T00:21:43;16.60;99.90
53146;DHT22;39042;53.150;5.898;2023-07-16T00:24:09;16.50;99.90
53146;DHT22;39042;53.150;5.898;2023-07-16T00:26:35;16.40;99.90
53146;DHT22;39042;53.150;5.898;2023-07-16T00:29:01;16.30;99.90
53146;DHT22;39042;53.150;5.898;2023-07-16T00:31:26;16.20;99.90
53146;DHT22;39042;53.150;5.898;2023-07-16T00:33:52;16.10;99.90
53146;DHT22;39042;53.150;5.898;2023-07-16T00:36:18;16.00;99.90
53146;DHT22;39042;53.150;5.898;2023-07-16T00:38:44;15.90;99.90
53146;DHT22;39042;53.150;5.898;2023-07-16T00:41:13;15.90;99.90
53146;DHT22;39042;53.150;5.898;2023-07-16T00:43:39;15.80;99.90
53146;DHT22;39042;53.150;5.898;2023-07-16T00:46:04;15.70;99.90
53146;DHT22;39042;53.150;5.898;2023-07-16T00:48:30;15.70;99.90
53146;DHT22;39042;53.150;5.898;2023-07-16T00:50:56;15.70;99.90
53146;DHT22;39042;53.150;5.898;2023-07-16T00:53:23;15.70;99.90
53146;DHT22;39042;53.150;5.898;2023-07-16T00:55:49;15.70;99.90
53146;DHT22;39042;53.150;5.898;2023-07-16T00:58:15;15.70;99.90
53146;DHT22;39042;53.150;5.898;2023-07-16T01:00:42;15.70;99.90
53146;DHT22;39042;53.150;5.898;2023-07-16T01:03:10;15.70;99.90
53146;DHT22;39042;53.150;5.898;2023-07-16T01:06:00;15.70;99.90
53146;DHT22;39042;53.150;5.898;2023-07-16T01:08:35;15.70;99.90
53146;DHT22;39042;53.150;5.898;2023-07-16T01:11:05;15.60;99.90
53146;DHT22;39042;53.150;5.898;2023-07-16T01:13:32;15.60;99.90
53146;DHT22;39042;53.150;5.898;2023-07-16T01:15:59;15.60;99.90
53146;DHT22;39042;53.150;5.898;2023-07-16T01:18:25;15.60;99.90
53146;DHT22;39042;53.150;5.898;2023-07-16T01:20:51;15.60;99.90
53146;DHT22;39042;53.150;5.898;2023-07-16T01:31:48;15.60;99.90
53146;DHT22;39042;53.150;5.898;2023-07-16T01:34:16;15.60;99.90
53146;DHT22;39042;53.150;5.898;2023-07-16T01:36:43;15.60;99.90
53146;DHT22;39042;53.150;5.898;2023-07-16T01:39:09;15.70;99.90
53146;DHT22;39042;53.150;5.898;2023-07-16T01:41:35;15.70;99.90
53146;DHT22;39042;53.150;5.898;2023-07-16T01:44:01;15.70;99.90
53146;DHT22;39042;53.150;5.898;2023-07-16T01:46:27;15.70;99.90
53146;DHT22;39042;53.150;5.898;2023-07-16T01:48:53;15.70;99.90
53146;DHT22;39042;53.150;5.898;2023-07-16T01:51:21;15.80;99.90
53146;DHT22;39042;53.150;5.898;2023-07-16T01:53:47;15.80;99.90
53146;DHT22;39042;53.150;5.898;2023-07-16T01:56:13;15.80;99.90
53146;DHT22;39042;53.150;5.898;2023-07-16T01:58:39;15.80;99.90
53146;DHT22;39042;53.150;5.898;2023-07-16T02:01:05;15.80;99.90
53146;DHT22;39042;53.150;5.898;2023-07-16T02:03:31;15.90;99.90
53146;DHT22;39042;53.150;5.898;2023-07-16T02:05:57;15.90;99.90
53146;DHT22;39042;53.150;5.898;2023-07-16T02:08:23;16.00;99.90
53146;DHT22;39042;53.150;5.898;2023-07-16T02:10:49;16.00;99.90
53146;DHT22;39042;53.150;5.898;2023-07-16T02:13:14;16.10;99.90
53146;DHT22;39042;53.150;5.898;2023-07-16T02:15:41;16.10;99.90
53146;DHT22;39042;53.150;5.898;2023-07-16T02:18:07;16.10;99.90
53146;DHT22;39042;53.150;5.898;2023-07-16T02:20:34;16.10;99.90
53146;DHT22;39042;53.150;5.898;2023-07-16T02:23:00;16.20;99.90
53146;DHT22;39042;53.150;5.898;2023-07-16T02:25:26;16.20;99.90
53146;DHT22;39042;53.150;5.898;2023-07-16T02:27:52;16.20;99.90
53146;DHT22;39042;53.150;5.898;2023-07-16T02:30:18;16.20;99.90
53146;DHT22;39042;53.150;5.898;2023-07-16T02:32:44;16.20;99.90
53146;DHT22;39042;53.150;5.898;2023-07-16T02:35:10;16.20;99.90
53146;DHT22;39042;53.150;5.898;2023-07-16T02:37:36;16.20;99.90
53146;DHT22;39042;53.150;5.898;2023-07-16T02:40:02;16.20;99.90
53146;DHT22;39042;53.150;5.898;2023-07-16T02:42:29;16.30;99.90
53146;DHT22;39042;53.150;5.898;2023-07-16T02:44:55;16.30;99.90
53146;DHT22;39042;53.150;5.898;2023-07-16T02:47:21;16.30;99.90
53146;DHT22;39042;53.150;5.898;2023-07-16T02:49:53;16.40;99.90
53146;DHT22;39042;53.150;5.898;2023-07-16T02:52:19;16.40;99.90
53146;DHT22;39042;53.150;5.898;2023-07-16T02:54:45;16.40;99.90
53146;DHT22;39042;53.150;5.898;2023-07-16T02:57:10;16.50;99.90
53146;DHT22;39042;53.150;5.898;2023-07-16T02:59:37;16.50;99.90
53146;DHT22;39042;53.150;5.898;2023-07-16T03:02:03;16.50;99.90
53146;DHT22;39042;53.150;5.898;2023-07-16T03:04:29;16.60;99.90
53146;DHT22;39042;53.150;5.898;2023-07-16T03:06:55;16.60;99.90
53146;DHT22;39042;53.150;5.898;2023-07-16T03:09:22;16.60;99.90
53146;DHT22;39042;53.150;5.898;2023-07-16T03:11:48;16.60;99.90
53146;DHT22;39042;53.150;5.898;2023-07-16T03:14:14;16.60;99.90
53146;DHT22;39042;53.150;5.898;2023-07-16T03:16:39;16.60;99.90
53146;DHT22;39042;53.150;5.898;2023-07-16T03:19:07;16.70;99.90
53146;DHT22;39042;53.150;5.898;2023-07-16T03:21:32;16.80;99.90
53146;DHT22;39042;53.150;5.898;2023-07-16T03:23:59;16.70;99.90
53146;DHT22;39042;53.150;5.898;2023-07-16T03:26:25;16.80;99.90
53146;DHT22;39042;53.150;5.898;2023-07-16T03:28:50;16.80;99.90
53146;DHT22;39042;53.150;5.898;2023-07-16T03:31:17;16.90;99.90
53146;DHT22;39042;53.150;5.898;2023-07-16T03:33:44;16.90;99.90
53146;DHT22;39042;53.150;5.898;2023-07-16T03:36:12;16.90;99.90
53146;DHT22;39042;53.150;5.898;2023-07-16T03:38:38;16.90;99.90
53146;DHT22;39042;53.150;5.898;2023-07-16T03:41:03;16.90;99.90
53146;DHT22;39042;53.150;5.898;2023-07-16T03:43:31;16.90;99.90
53146;DHT22;39042;53.150;5.898;2023-07-16T03:46:05;16.90;99.90
53146;DHT22;39042;53.150;5.898;2023-07-16T03:48:33;16.90;99.90
53146;DHT22;39042;53.150;5.898;2023-07-16T03:50:59;16.90;99.90
53146;DHT22;39042;53.150;5.898;2023-07-16T03:53:27;17.00;99.90
53146;DHT22;39042;53.150;5.898;2023-07-16T03:55:52;17.00;99.90
53146;DHT22;39042;53.150;5.898;2023-07-16T03:58:18;17.00;99.90
53146;DHT22;39042;53.150;5.898;2023-07-16T04:00:44;17.00;99.90
53146;DHT22;39042;53.150;5.898;2023-07-16T04:03:10;17.10;99.90
53146;DHT22;39042;53.150;5.898;2023-07-16T04:05:37;17.10;99.90
53146;DHT22;39042;53.150;5.898;2023-07-16T04:08:03;17.10;99.90
53146;DHT22;39042;53.150;5.898;2023-07-16T04:10:29;17.10;99.90
53146;DHT22;39042;53.150;5.898;2023-07-16T04:12:55;17.10;99.90
53146;DHT22;39042;53.150;5.898;2023-07-16T04:15:21;17.10;99.90
53146;DHT22;39042;53.150;5.898;2023-07-16T04:17:46;17.20;99.90
53146;DHT22;39042;53.150;5.898;2023-07-16T04:20:12;17.30;99.90
53146;DHT22;39042;53.150;5.898;2023-07-16T04:22:39;17.40;99.90
53146;DHT22;39042;53.150;5.898;2023-07-16T04:25:05;17.40;99.90
53146;DHT22;39042;53.150;5.898;2023-07-16T04:27:31;17.50;99.90
53146;DHT22;39042;53.150;5.898;2023-07-16T04:29:56;17.50;99.90
53146;DHT22;39042;53.150;5.898;2023-07-16T04:32:22;17.50;99.90
53146;DHT22;39042;53.150;5.898;2023-07-16T04:34:48;17.60;99.90
53146;DHT22;39042;53.150;5.898;2023-07-16T04:37:14;17.60;99.90
53146;DHT22;39042;53.150;5.898;2023-07-16T04:39:40;17.70;99.90
53146;DHT22;39042;53.150;5.898;2023-07-16T04:42:06;17.60;99.90
53146;DHT22;39042;53.150;5.898;2023-07-16T04:44:31;17.60;99.90
53146;DHT22;39042;53.150;5.898;2023-07-16T04:46:57;17.60;99.90
53146;DHT22;39042;53.150;5.898;2023-07-16T04:49:23;17.60;99.90
53146;DHT22;39042;53.150;5.898;2023-07-16T04:51:49;17.70;99.90
53146;DHT22;39042;53.150;5.898;2023-07-16T04:54:15;17.80;99.90
53146;DHT22;39042;53.150;5.898;2023-07-16T04:56:40;17.80;99.90
53146;DHT22;39042;53.150;5.898;2023-07-16T04:59:06;17.90;99.90
53146;DHT22;39042;53.150;5.898;2023-07-16T05:01:32;17.90;99.90
53146;DHT22;39042;53.150;5.898;2023-07-16T05:03:58;17.90;99.90
53146;DHT22;39042;53.150;5.898;2023-07-16T05:06:24;17.90;99.90
53146;DHT22;39042;53.150;5.898;2023-07-16T05:08:49;17.90;99.90
53146;DHT22;39042;53.150;5.898;2023-07-16T05:11:15;17.90;99.90
53146;DHT22;39042;53.150;5.898;2023-07-16T05:13:41;18.00;99.90
53146;DHT22;39042;53.150;5.898;2023-07-16T05:16:07;18.00;99.90
53146;DHT22;39042;53.150;5.898;2023-07-16T05:18:33;17.90;99.90
53146;DHT22;39042;53.150;5.898;2023-07-16T05:20:59;17.70;99.90
53146;DHT22;39042;53.150;5.898;2023-07-16T05:23:24;17.60;99.90
53146;DHT22;39042;53.150;5.898;2023-07-16T05:25:50;17.40;99.90
53146;DHT22;39042;53.150;5.898;2023-07-16T05:28:18;17.30;99.90
53146;DHT22;39042;53.150;5.898;2023-07-16T05:30:44;17.20;99.90
53146;DHT22;39042;53.150;5.898;2023-07-16T05:33:11;17.10;99.90
53146;DHT22;39042;53.150;5.898;2023-07-16T05:35:37;17.20;99.90
53146;DHT22;39042;53.150;5.898;2023-07-16T05:38:03;17.20;99.90
53146;DHT22;39042;53.150;5.898;2023-07-16T05:40:29;17.40;99.90
53146;DHT22;39042;53.150;5.898;2023-07-16T05:42:54;17.50;99.90
53146;DHT22;39042;53.150;5.898;2023-07-16T05:45:20;17.60;99.90
53146;DHT22;39042;53.150;5.898;2023-07-16T05:47:46;17.70;99.90
53146;DHT22;39042;53.150;5.898;2023-07-16T05:50:12;17.70;99.90
53146;DHT22;39042;53.150;5.898;2023-07-16T05:52:38;17.90;99.90
53146;DHT22;39042;53.150;5.898;2023-07-16T05:55:04;17.90;99.90
53146;DHT22;39042;53.150;5.898;2023-07-16T05:57:30;17.90;99.90
53146;DHT22;39042;53.150;5.898;2023-07-16T05:59:55;17.90;99.90
53146;DHT22;39042;53.150;5.898;2023-07-16T06:02:21;17.90;99.90
53146;DHT22;39042;53.150;5.898;2023-07-16T06:04:47;17.90;99.90
53146;DHT22;39042;53.150;5.898;2023-07-16T06:07:13;17.80;99.90
53146;DHT22;39042;53.150;5.898;2023-07-16T06:09:39;17.70;99.90
53146;DHT22;39042;53.150;5.898;2023-07-16T06:12:05;17.60;99.90
53146;DHT22;39042;53.150;5.898;2023-07-16T06:14:31;17.50;99.90
53146;DHT22;39042;53.150;5.898;2023-07-16T06:16:56;17.50;99.90
53146;DHT22;39042;53.150;5.898;2023-07-16T06:19:22;17.50;99.90
53146;DHT22;39042;53.150;5.898;2023-07-16T06:21:48;17.70;99.90
53146;DHT22;39042;53.150;5.898;2023-07-16T06:24:14;17.80;99.90
53146;DHT22;39042;53.150;5.898;2023-07-16T06:26:40;18.00;99.90
53146;DHT22;39042;53.150;5.898;2023-07-16T06:29:06;18.20;99.90
53146;DHT22;39042;53.150;5.898;2023-07-16T06:31:32;18.50;99.90
53146;DHT22;39042;53.150;5.898;2023-07-16T06:33:57;18.70;99.90
53146;DHT22;39042;53.150;5.898;2023-07-16T06:36:23;18.70;99.90
53146;DHT22;39042;53.150;5.898;2023-07-16T06:38:49;18.70;99.90
53146;DHT22;39042;53.150;5.898;2023-07-16T06:41:15;18.60;99.90
53146;DHT22;39042;53.150;5.898;2023-07-16T06:43:41;18.60;99.90
53146;DHT22;39042;53.150;5.898;2023-07-16T06:46:07;18.70;99.90
53146;DHT22;39042;53.150;5.898;2023-07-16T06:48:32;18.90;99.90
53146;DHT22;39042;53.150;5.898;2023-07-16T06:50:59;19.00;99.90
53146;DHT22;39042;53.150;5.898;2023-07-16T06:53:25;19.20;99.90
53146;DHT22;39042;53.150;5.898;2023-07-16T06:55:51;19.30;99.90
53146;DHT22;39042;53.150;5.898;2023-07-16T06:58:17;19.20;99.90
53146;DHT22;39042;53.150;5.898;2023-07-16T07:00:43;19.10;99.90
53146;DHT22;39042;53.150;5.898;2023-07-16T07:03:09;18.90;99.90
53146;DHT22;39042;53.150;5.898;2023-07-16T07:05:35;18.70;99.90
53146;DHT22;39042;53.150;5.898;2023-07-16T07:08:02;18.50;99.90
53146;DHT22;39042;53.150;5.898;2023-07-16T07:10:28;18.30;99.90
53146;DHT22;39042;53.150;5.898;2023-07-16T07:12:54;18.20;99.90
53146;DHT22;39042;53.150;5.898;2023-07-16T07:15:20;18.20;99.90
53146;DHT22;39042;53.150;5.898;2023-07-16T07:17:46;18.20;99.90
53146;DHT22;39042;53.150;5.898;2023-07-16T07:20:13;18.20;99.90
53146;DHT22;39042;53.150;5.898;2023-07-16T07:22:38;18.30;99.90
53146;DHT22;39042;53.150;5.898;2023-07-16T07:25:04;18.40;99.90
53146;DHT22;39042;53.150;5.898;2023-07-16T07:27:31;18.40;99.90
53146;DHT22;39042;53.150;5.898;2023-07-16T07:29:57;18.60;99.90
53146;DHT22;39042;53.150;5.898;2023-07-16T07:32:23;18.80;99.90
53146;DHT22;39042;53.150;5.898;2023-07-16T07:34:49;19.00;99.90
53146;DHT22;39042;53.150;5.898;2023-07-16T07:37:15;19.20;99.90
53146;DHT22;39042;53.150;5.898;2023-07-16T07:39:41;19.40;99.90
53146;DHT22;39042;53.150;5.898;2023-07-16T07:42:07;19.50;99.90
53146;DHT22;39042;53.150;5.898;2023-07-16T07:44:34;19.60;99.90
53146;DHT22;39042;53.150;5.898;2023-07-16T07:47:00;19.60;99.90
53146;DHT22;39042;53.150;5.898;2023-07-16T07:49:26;19.60;99.90
53146;DHT22;39042;53.150;5.898;2023-07-16T07:51:52;19.60;99.90
53146;DHT22;39042;53.150;5.898;2023-07-16T07:54:17;19.60;99.90
53146;DHT22;39042;53.150;5.898;2023-07-16T07:56:45;19.70;99.90
53146;DHT22;39042;53.150;5.898;2023-07-16T07:59:12;19.80;99.90
53146;DHT22;39042;53.150;5.898;2023-07-16T08:01:37;19.80;99.90
53146;DHT22;39042;53.150;5.898;2023-07-16T08:04:03;19.80;99.90
53146;DHT22;39042;53.150;5.898;2023-07-16T08:06:29;19.80;99.90
53146;DHT22;39042;53.150;5.898;2023-07-16T08:08:55;19.80;99.90
53146;DHT22;39042;53.150;5.898;2023-07-16T08:11:21;19.80;99.90
53146;DHT22;39042;53.150;5.898;2023-07-16T08:13:47;19.80;99.90
53146;DHT22;39042;53.150;5.898;2023-07-16T08:16:13;19.90;99.90
53146;DHT22;39042;53.150;5.898;2023-07-16T08:18:38;19.90;99.90
53146;DHT22;39042;53.150;5.898;2023-07-16T08:21:04;19.90;99.90
53146;DHT22;39042;53.150;5.898;2023-07-16T08:23:30;20.10;99.90
53146;DHT22;39042;53.150;5.898;2023-07-16T08:25:57;20.20;99.90
53146;DHT22;39042;53.150;5.898;2023-07-16T08:28:23;20.30;99.90
53146;DHT22;39042;53.150;5.898;2023-07-16T08:30:49;20.40;99.90
53146;DHT22;39042;53.150;5.898;2023-07-16T08:33:15;20.40;99.90
53146;DHT22;39042;53.150;5.898;2023-07-16T08:35:41;20.50;99.90
53146;DHT22;39042;53.150;5.898;2023-07-16T08:38:07;20.50;99.90
53146;DHT22;39042;53.150;5.898;2023-07-16T08:40:39;20.50;99.90
53146;DHT22;39042;53.150;5.898;2023-07-16T08:43:08;20.50;99.90
53146;DHT22;39042;53.150;5.898;2023-07-16T08:45:39;20.50;99.90
53146;DHT22;39042;53.150;5.898;2023-07-16T08:48:07;20.50;99.90
53146;DHT22;39042;53.150;5.898;2023-07-16T08:50:35;20.60;99.90
53146;DHT22;39042;53.150;5.898;2023-07-16T08:53:04;20.70;99.90
53146;DHT22;39042;53.150;5.898;2023-07-16T08:55:30;20.70;99.90
53146;DHT22;39042;53.150;5.898;2023-07-16T08:57:57;20.70;99.90
53146;DHT22;39042;53.150;5.898;2023-07-16T09:00:26;20.80;99.90
53146;DHT22;39042;53.150;5.898;2023-07-16T09:02:52;20.90;99.90
53146;DHT22;39042;53.150;5.898;2023-07-16T09:05:22;21.10;99.90
53146;DHT22;39042;53.150;5.898;2023-07-16T09:07:49;21.20;99.90
53146;DHT22;39042;53.150;5.898;2023-07-16T09:10:15;21.30;99.90
53146;DHT22;39042;53.150;5.898;2023-07-16T09:12:45;21.30;99.90
53146;DHT22;39042;53.150;5.898;2023-07-16T09:15:13;21.40;99.90
53146;DHT22;39042;53.150;5.898;2023-07-16T09:17:42;21.40;99.90
53146;DHT22;39042;53.150;5.898;2023-07-16T09:20:08;21.50;99.90
53146;DHT22;39042;53.150;5.898;2023-07-16T09:22:34;21.50;99.90
53146;DHT22;39042;53.150;5.898;2023-07-16T09:25:01;21.60;99.90
53146;DHT22;39042;53.150;5.898;2023-07-16T09:27:31;21.60;99.90
53146;DHT22;39042;53.150;5.898;2023-07-16T09:29:57;21.60;99.90
53146;DHT22;39042;53.150;5.898;2023-07-16T09:32:37;21.50;99.90
53146;DHT22;39042;53.150;5.898;2023-07-16T09:35:09;21.50;99.90
53146;DHT22;39042;53.150;5.898;2023-07-16T09:37:37;21.40;99.90
53146;DHT22;39042;53.150;5.898;2023-07-16T09:40:05;21.50;99.90
53146;DHT22;39042;53.150;5.898;2023-07-16T09:42:37;21.60;99.90
53146;DHT22;39042;53.150;5.898;2023-07-16T09:45:03;21.50;99.90
53146;DHT22;39042;53.150;5.898;2023-07-16T09:47:30;21.40;99.90
53146;DHT22;39042;53.150;5.898;2023-07-16T09:49:56;21.40;99.90
53146;DHT22;39042;53.150;5.898;2023-07-16T09:52:26;21.50;99.90
53146;DHT22;39042;53.150;5.898;2023-07-16T09:54:55;21.50;99.90
53146;DHT22;39042;53.150;5.898;2023-07-16T09:57:23;21.50;99.90
53146;DHT22;39042;53.150;5.898;2023-07-16T09:59:52;21.50;99.90
53146;DHT22;39042;53.150;5.898;2023-07-16T10:02:20;21.50;99.90
53146;DHT22;39042;53.150;5.898;2023-07-16T10:04:46;21.60;99.90
53146;DHT22;39042;53.150;5.898;2023-07-16T10:07:23;21.60;99.90
53146;DHT22;39042;53.150;5.898;2023-07-16T10:09:54;21.60;99.90
53146;DHT22;39042;53.150;5.898;2023-07-16T10:12:23;21.40;99.90
53146;DHT22;39042;53.150;5.898;2023-07-16T10:14:53;21.10;99.90
53146;DHT22;39042;53.150;5.898;2023-07-16T10:17:26;20.90;99.90
53146;DHT22;39042;53.150;5.898;2023-07-16T10:22:32;20.60;99.90
53146;DHT22;39042;53.150;5.898;2023-07-16T10:24:58;20.70;99.90
53146;DHT22;39042;53.150;5.898;2023-07-16T10:27:32;20.80;99.90
53146;DHT22;39042;53.150;5.898;2023-07-16T10:29:59;21.00;99.90
53146;DHT22;39042;53.150;5.898;2023-07-16T10:32:27;21.30;99.90
53146;DHT22;39042;53.150;5.898;2023-07-16T10:34:54;21.30;99.90
53146;DHT22;39042;53.150;5.898;2023-07-16T10:37:20;21.30;99.90
53146;DHT22;39042;53.150;5.898;2023-07-16T10:39:51;21.10;99.90
53146;DHT22;39042;53.150;5.898;2023-07-16T10:42:17;21.00;99.90
53146;DHT22;39042;53.150;5.898;2023-07-16T10:44:44;21.00;99.90
53146;DHT22;39042;53.150;5.898;2023-07-16T10:47:23;21.10;99.90
53146;DHT22;39042;53.150;5.898;2023-07-16T10:49:50;21.20;99.90
53146;DHT22;39042;53.150;5.898;2023-07-16T10:52:18;21.30;99.90
53146;DHT22;39042;53.150;5.898;2023-07-16T10:54:44;21.40;99.90
53146;DHT22;39042;53.150;5.898;2023-07-16T10:57:11;21.30;99.90
53146;DHT22;39042;53.150;5.898;2023-07-16T10:59:40;21.20;99.90
53146;DHT22;39042;53.150;5.898;2023-07-16T11:02:14;21.10;99.90
53146;DHT22;39042;53.150;5.898;2023-07-16T11:04:40;21.20;99.90
53146;DHT22;39042;53.150;5.898;2023-07-16T11:07:07;21.30;99.90
53146;DHT22;39042;53.150;5.898;2023-07-16T11:09:40;21.50;99.90
53146;DHT22;39042;53.150;5.898;2023-07-16T11:12:14;21.60;99.90
53146;DHT22;39042;53.150;5.898;2023-07-16T11:14:46;21.80;99.90
53146;DHT22;39042;53.150;5.898;2023-07-16T11:17:12;21.80;99.90
53146;DHT22;39042;53.150;5.898;2023-07-16T11:19:39;21.90;99.90
53146;DHT22;39042;53.150;5.898;2023-07-16T11:22:06;21.90;99.90
53146;DHT22;39042;53.150;5.898;2023-07-16T11:24:37;21.80;99.90
53146;DHT22;39042;53.150;5.898;2023-07-16T11:27:04;21.80;99.90
53146;DHT22;39042;53.150;5.898;2023-07-16T11:29:36;21.70;99.90
53146;DHT22;39042;53.150;5.898;2023-07-16T11:32:02;21.60;99.90
53146;DHT22;39042;53.150;5.898;2023-07-16T11:34:28;21.50;99.90
53146;DHT22;39042;53.150;5.898;2023-07-16T11:36:54;21.50;99.90
53146;DHT22;39042;53.150;5.898;2023-07-16T11:39:20;21.50;99.90
53146;DHT22;39042;53.150;5.898;2023-07-16T11:41:58;21.50;99.90
53146;DHT22;39042;53.150;5.898;2023-07-16T11:44:24;21.40;99.90
53146;DHT22;39042;53.150;5.898;2023-07-16T11:46:50;21.30;99.90
53146;DHT22;39042;53.150;5.898;2023-07-16T11:49:16;21.10;99.90
53146;DHT22;39042;53.150;5.898;2023-07-16T11:51:42;21.00;99.90
53146;DHT22;39042;53.150;5.898;2023-07-16T11:54:10;20.90;99.90
53146;DHT22;39042;53.150;5.898;2023-07-16T11:56:36;20.90;99.90
53146;DHT22;39042;53.150;5.898;2023-07-16T11:59:02;20.90;99.90
53146;DHT22;39042;53.150;5.898;2023-07-16T12:01:28;21.10;99.90
53146;DHT22;39042;53.150;5.898;2023-07-16T12:03:54;21.20;99.90
53146;DHT22;39042;53.150;5.898;2023-07-16T12:06:19;21.40;99.90
53146;DHT22;39042;53.150;5.898;2023-07-16T12:08:45;21.50;99.90
53146;DHT22;39042;53.150;5.898;2023-07-16T12:11:11;21.60;99.90
53146;DHT22;39042;53.150;5.898;2023-07-16T12:13:37;21.60;99.90
53146;DHT22;39042;53.150;5.898;2023-07-16T12:16:03;21.60;99.90
53146;DHT22;39042;53.150;5.898;2023-07-16T12:18:29;21.50;99.90
53146;DHT22;39042;53.150;5.898;2023-07-16T12:20:56;21.50;99.90
53146;DHT22;39042;53.150;5.898;2023-07-16T12:23:22;21.40;99.90
53146;DHT22;39042;53.150;5.898;2023-07-16T12:25:49;21.20;99.90
53146;DHT22;39042;53.150;5.898;2023-07-16T12:28:15;21.10;99.90
53146;DHT22;39042;53.150;5.898;2023-07-16T12:30:41;21.10;99.90
53146;DHT22;39042;53.150;5.898;2023-07-16T12:33:07;21.20;99.90
53146;DHT22;39042;53.150;5.898;2023-07-16T12:35:33;21.20;99.90
53146;DHT22;39042;53.150;5.898;2023-07-16T12:37:59;21.10;99.90
53146;DHT22;39042;53.150;5.898;2023-07-16T12:40:25;21.20;99.90
53146;DHT22;39042;53.150;5.898;2023-07-16T12:42:51;21.20;99.90
53146;DHT22;39042;53.150;5.898;2023-07-16T12:45:17;21.30;99.90
53146;DHT22;39042;53.150;5.898;2023-07-16T12:47:43;21.30;99.90
53146;DHT22;39042;53.150;5.898;2023-07-16T12:50:09;21.40;99.90
53146;DHT22;39042;53.150;5.898;2023-07-16T12:52:35;21.40;99.90
53146;DHT22;39042;53.150;5.898;2023-07-16T12:55:01;21.40;99.90
53146;DHT22;39042;53.150;5.898;2023-07-16T12:57:27;21.50;99.90
53146;DHT22;39042;53.150;5.898;2023-07-16T12:59:52;21.60;99.90
53146;DHT22;39042;53.150;5.898;2023-07-16T13:02:18;21.80;99.90
53146;DHT22;39042;53.150;5.898;2023-07-16T13:04:44;22.00;99.90
53146;DHT22;39042;53.150;5.898;2023-07-16T13:07:10;21.90;99.90
53146;DHT22;39042;53.150;5.898;2023-07-16T13:09:36;21.70;99.90
53146;DHT22;39042;53.150;5.898;2023-07-16T13:12:02;21.40;99.90
53146;DHT22;39042;53.150;5.898;2023-07-16T13:14:28;21.30;99.90
53146;DHT22;39042;53.150;5.898;2023-07-16T13:16:54;21.20;99.90
53146;DHT22;39042;53.150;5.898;2023-07-16T13:19:20;21.10;99.90
53146;DHT22;39042;53.150;5.898;2023-07-16T13:21:46;21.00;99.90
53146;DHT22;39042;53.150;5.898;2023-07-16T13:24:11;20.90;99.90
53146;DHT22;39042;53.150;5.898;2023-07-16T13:26:37;20.90;99.90
53146;DHT22;39042;53.150;5.898;2023-07-16T13:29:03;21.10;99.90
53146;DHT22;39042;53.150;5.898;2023-07-16T13:31:29;21.30;99.90
53146;DHT22;39042;53.150;5.898;2023-07-16T13:33:55;21.50;99.90
53146;DHT22;39042;53.150;5.898;2023-07-16T13:36:21;21.70;99.90
53146;DHT22;39042;53.150;5.898;2023-07-16T13:38:47;21.80;99.90
53146;DHT22;39042;53.150;5.898;2023-07-16T13:41:13;21.80;99.90
53146;DHT22;39042;53.150;5.898;2023-07-16T13:43:38;21.70;99.90
53146;DHT22;39042;53.150;5.898;2023-07-16T13:46:04;21.60;99.90
53146;DHT22;39042;53.150;5.898;2023-07-16T13:48:30;21.50;99.90
53146;DHT22;39042;53.150;5.898;2023-07-16T13:50:56;21.60;99.90
53146;DHT22;39042;53.150;5.898;2023-07-16T13:53:22;21.70;99.90
53146;DHT22;39042;53.150;5.898;2023-07-16T13:55:47;21.90;99.90
53146;DHT22;39042;53.150;5.898;2023-07-16T13:58:13;22.00;99.90
53146;DHT22;39042;53.150;5.898;2023-07-16T14:00:40;22.00;99.90
53146;DHT22;39042;53.150;5.898;2023-07-16T14:03:06;22.00;99.90
53146;DHT22;39042;53.150;5.898;2023-07-16T14:05:32;21.90;99.90
53146;DHT22;39042;53.150;5.898;2023-07-16T14:08:04;21.90;99.90
53146;DHT22;39042;53.150;5.898;2023-07-16T14:10:30;21.90;99.90
53146;DHT22;39042;53.150;5.898;2023-07-16T14:12:56;22.00;99.90
53146;DHT22;39042;53.150;5.898;2023-07-16T14:15:22;22.00;99.90
53146;DHT22;39042;53.150;5.898;2023-07-16T14:17:48;22.10;99.90
53146;DHT22;39042;53.150;5.898;2023-07-16T14:20:16;22.20;99.80
53146;DHT22;39042;53.150;5.898;2023-07-16T14:22:42;22.20;99.30
53146;DHT22;39042;53.150;5.898;2023-07-16T14:25:08;22.10;99.00
53146;DHT22;39042;53.150;5.898;2023-07-16T14:27:35;22.00;99.00
53146;DHT22;39042;53.150;5.898;2023-07-16T14:30:01;21.80;99.40
53146;DHT22;39042;53.150;5.898;2023-07-16T14:32:27;21.80;99.70
53146;DHT22;39042;53.150;5.898;2023-07-16T14:34:52;21.90;99.60
53146;DHT22;39042;53.150;5.898;2023-07-16T14:37:19;21.80;99.20
53146;DHT22;39042;53.150;5.898;2023-07-16T14:39:44;21.70;99.10
53146;DHT22;39042;53.150;5.898;2023-07-16T14:42:10;21.70;99.20
53146;DHT22;39042;53.150;5.898;2023-07-16T14:44:36;21.70;99.30
53146;DHT22;39042;53.150;5.898;2023-07-16T14:47:02;21.70;99.40
53146;DHT22;39042;53.150;5.898;2023-07-16T14:49:29;21.70;99.50
53146;DHT22;39042;53.150;5.898;2023-07-16T14:51:55;21.70;99.40
53146;DHT22;39042;53.150;5.898;2023-07-16T14:54:21;21.80;99.40
53146;DHT22;39042;53.150;5.898;2023-07-16T14:56:47;21.90;99.70
53146;DHT22;39042;53.150;5.898;2023-07-16T14:59:13;22.00;99.50
53146;DHT22;39042;53.150;5.898;2023-07-16T15:01:39;22.10;99.00
53146;DHT22;39042;53.150;5.898;2023-07-16T15:04:05;22.20;98.40
53146;DHT22;39042;53.150;5.898;2023-07-16T15:06:31;22.30;98.20
53146;DHT22;39042;53.150;5.898;2023-07-16T15:08:56;22.30;98.10
53146;DHT22;39042;53.150;5.898;2023-07-16T15:11:22;22.30;97.90
53146;DHT22;39042;53.150;5.898;2023-07-16T15:13:48;22.30;97.70
53146;DHT22;39042;53.150;5.898;2023-07-16T15:16:14;22.40;97.70
53146;DHT22;39042;53.150;5.898;2023-07-16T15:18:40;22.30;97.60
53146;DHT22;39042;53.150;5.898;2023-07-16T15:21:06;22.40;97.50
53146;DHT22;39042;53.150;5.898;2023-07-16T15:23:32;22.30;97.90
53146;DHT22;39042;53.150;5.898;2023-07-16T15:26:04;22.30;98.20
53146;DHT22;39042;53.150;5.898;2023-07-16T15:28:32;22.20;97.90
53146;DHT22;39042;53.150;5.898;2023-07-16T15:31:02;22.20;97.60
53146;DHT22;39042;53.150;5.898;2023-07-16T15:33:28;22.20;97.40
53146;DHT22;39042;53.150;5.898;2023-07-16T15:35:56;22.20;97.30
53146;DHT22;39042;53.150;5.898;2023-07-16T15:38:23;22.20;97.40